Time;durP1;ratioP1;P1;durP2;ratioP2;P2;SDS_P1;SDS_P2;PMS_P1;PMS_P2;Temp;Humidity;BMP_temperature;BMP_pressure;BME280_temperature;BME280_humidity;BME280_pressure;Samples;Min_cycle;Max_cycle;Signal;HPM_P1;HPM_P2
2021/09/08 00:00:53;;;;;;;31.37;28.90;;;15.90;99.90;;;;;;4943720;28;20499;-69
2021/09/08 00:03:20;;;;;;;31.37;28.83;;;15.80;99.90;;;;;;4944868;29;20452;-69
2021/09/08 00:05:46;;;;;;;30.83;28.33;;;15.90;99.90;;;;;;4943928;28;20794;-69
2021/09/08 00:08:13;;;;;;;32.20;29.30;;;15.80;99.90;;;;;;4944158;28;20703;-70
2021/09/08 00:10:41;;;;;;;32.73;29.93;;;15.80;99.90;;;;;;4945165;28;20488;-70
2021/09/08 00:13:08;;;;;;;34.53;31.70;;;15.70;99.90;;;;;;4944881;29;20852;-70
2021/09/08 00:15:35;;;;;;;31.13;28.33;;;15.70;99.90;;;;;;4944529;28;20513;-70
2021/09/08 00:18:01;;;;;;;36.47;32.80;;;15.50;99.90;;;;;;4942752;29;20492;-69
2021/09/08 00:20:28;;;;;;;33.57;30.87;;;15.30;99.90;;;;;;4944472;28;20504;-70
2021/09/08 00:22:55;;;;;;;33.30;30.43;;;15.30;99.90;;;;;;4944562;29;20488;-70
2021/09/08 00:25:21;;;;;;;35.53;32.03;;;15.30;99.90;;;;;;4942530;28;20956;-70
2021/09/08 00:27:49;;;;;;;33.23;30.60;;;15.20;99.90;;;;;;4944189;29;20833;-69
2021/09/08 00:30:16;;;;;;;33.60;30.90;;;15.10;99.90;;;;;;4944252;29;21021;-70
2021/09/08 00:32:43;;;;;;;31.40;29.03;;;15.10;99.90;;;;;;4942782;28;20461;-70
2021/09/08 00:35:11;;;;;;;32.60;29.93;;;15.00;99.90;;;;;;4944080;29;20459;-70
2021/09/08 00:37:38;;;;;;;34.23;31.37;;;15.00;99.90;;;;;;4944671;29;20445;-70
2021/09/08 00:40:06;;;;;;;34.80;31.90;;;15.00;99.90;;;;;;4944870;28;20877;-70
2021/09/08 00:42:33;;;;;;;33.40;30.50;;;14.90;99.90;;;;;;4943695;28;20819;-70
2021/09/08 00:45:01;;;;;;;34.37;31.67;;;14.90;99.90;;;;;;4942208;29;20457;-70
2021/09/08 00:47:28;;;;;;;33.23;30.43;;;14.80;99.90;;;;;;4943941;28;20468;-70
2021/09/08 00:49:54;;;;;;;37.10;33.73;;;14.70;99.90;;;;;;4943996;28;20489;-70
2021/09/08 00:52:22;;;;;;;32.97;30.17;;;14.70;99.90;;;;;;4942395;29;20829;-70
2021/09/08 00:54:51;;;;;;;34.13;31.47;;;14.60;99.90;;;;;;4943739;29;20451;-70
2021/09/08 00:57:20;;;;;;;32.60;30.00;;;14.60;99.90;;;;;;4943908;29;20877;-69
2021/09/08 00:59:46;;;;;;;33.47;30.70;;;14.60;99.90;;;;;;4940160;28;20587;-68
2021/09/08 01:02:15;;;;;;;32.93;30.20;;;14.60;99.90;;;;;;4943001;28;20846;-69
2021/09/08 01:04:41;;;;;;;33.27;30.80;;;14.60;99.90;;;;;;4944424;28;20499;-69
2021/09/08 01:07:09;;;;;;;32.47;29.80;;;14.60;99.90;;;;;;4942700;28;20457;-68
2021/09/08 01:09:36;;;;;;;33.73;31.13;;;14.60;99.90;;;;;;4942624;28;20488;-69
2021/09/08 01:12:03;;;;;;;31.57;29.13;;;14.60;99.90;;;;;;4944026;28;20453;-68
2021/09/08 01:14:30;;;;;;;33.27;30.60;;;14.60;99.90;;;;;;4947373;28;20475;-70
2021/09/08 01:16:58;;;;;;;36.53;32.97;;;14.50;99.90;;;;;;4952275;28;20484;-70
2021/09/08 01:19:27;;;;;;;34.70;31.87;;;14.50;99.90;;;;;;4953189;28;20527;-69
2021/09/08 01:21:53;;;;;;;37.30;34.17;;;14.50;99.90;;;;;;4952962;28;20946;-69
2021/09/08 01:24:23;;;;;;;36.07;32.70;;;14.40;99.90;;;;;;4952693;28;20456;-70
2021/09/08 01:26:52;;;;;;;34.37;31.57;;;14.30;99.90;;;;;;4952648;28;20459;-69
2021/09/08 01:29:18;;;;;;;36.57;33.60;;;14.30;99.90;;;;;;4952596;28;20460;-70
2021/09/08 01:31:52;;;;;;;35.80;33.00;;;14.20;99.90;;;;;;4952816;28;20456;-70
2021/09/08 01:34:19;;;;;;;36.83;33.73;;;14.20;99.90;;;;;;4952593;28;20865;-70
2021/09/08 01:36:46;;;;;;;36.50;33.10;;;14.10;99.90;;;;;;4952697;28;20507;-69
2021/09/08 01:39:16;;;;;;;39.93;36.23;;;14.10;99.90;;;;;;4952374;28;20520;-70
2021/09/08 01:41:45;;;;;;;36.60;33.50;;;14.10;99.90;;;;;;4952937;28;20455;-70
2021/09/08 01:44:11;;;;;;;38.73;35.33;;;14.00;99.90;;;;;;4952634;28;20461;-70
2021/09/08 01:46:38;;;;;;;40.40;36.93;;;14.00;99.90;;;;;;4952306;28;20829;-71
2021/09/08 01:49:05;;;;;;;40.93;37.07;;;14.00;99.90;;;;;;4952378;28;20460;-70
2021/09/08 01:51:31;;;;;;;41.87;38.00;;;13.90;99.90;;;;;;4952324;29;20484;-70
2021/09/08 01:53:58;;;;;;;44.13;40.23;;;13.90;99.90;;;;;;4952431;29;20467;-71
2021/09/08 01:56:24;;;;;;;44.80;40.37;;;13.90;99.90;;;;;;4952663;28;20456;-69
2021/09/08 01:58:52;;;;;;;44.37;40.17;;;14.00;99.90;;;;;;4952514;28;20857;-70
2021/09/08 02:01:22;;;;;;;42.40;38.40;;;14.10;99.90;;;;;;4952483;28;20453;-70
2021/09/08 02:03:49;;;;;;;41.43;37.83;;;14.20;99.90;;;;;;4952259;28;20491;-70
2021/09/08 02:06:23;;;;;;;43.13;39.23;;;14.20;99.90;;;;;;4952377;28;20452;-71
2021/09/08 02:08:50;;;;;;;41.87;38.10;;;14.30;99.90;;;;;;4952373;28;20467;-71
2021/09/08 02:11:16;;;;;;;40.23;36.83;;;14.30;99.90;;;;;;4952208;28;20496;-70
2021/09/08 02:13:43;;;;;;;40.60;37.30;;;14.30;99.90;;;;;;4951993;28;20456;-70
2021/09/08 04:02:12;;;;;;;41.33;37.40;;;13.40;99.90;;;;;;5839672;23;20648;-70
2021/09/08 04:04:39;;;;;;;41.43;37.83;;;13.40;99.90;;;;;;4921142;29;20473;-70
2021/09/08 04:07:06;;;;;;;42.60;38.67;;;13.50;99.90;;;;;;4915437;29;20945;-70
2021/09/08 04:09:32;;;;;;;42.50;38.67;;;13.50;99.90;;;;;;4922511;29;20461;-69
2021/09/08 04:11:59;;;;;;;43.43;39.60;;;13.50;99.90;;;;;;4917410;29;20454;-69
2021/09/08 04:14:26;;;;;;;41.10;37.37;;;13.30;99.90;;;;;;4915187;29;20470;-70
2021/09/08 04:16:53;;;;;;;43.00;39.27;;;13.20;99.90;;;;;;4915182;29;20461;-70
2021/09/08 04:19:21;;;;;;;46.03;41.63;;;13.10;99.90;;;;;;4915432;29;20841;-70
2021/09/08 04:21:47;;;;;;;42.17;38.30;;;13.00;99.90;;;;;;4914916;29;20447;-69
2021/09/08 04:24:14;;;;;;;43.40;39.47;;;12.80;99.90;;;;;;4915079;29;20844;-70
2021/09/08 04:26:41;;;;;;;44.10;39.50;;;12.80;99.90;;;;;;4915324;29;20465;-70
2021/09/08 04:29:07;;;;;;;43.33;39.00;;;12.80;99.90;;;;;;4915576;29;20469;-70
2021/09/08 04:31:34;;;;;;;42.57;38.77;;;12.70;99.90;;;;;;4914782;29;20509;-71
2021/09/08 04:34:06;;;;;;;45.23;40.93;;;12.70;99.90;;;;;;4914961;29;20450;-70
2021/09/08 04:36:34;;;;;;;43.67;39.80;;;12.60;99.90;;;;;;4914973;29;20458;-70
2021/09/08 04:39:00;;;;;;;46.40;42.33;;;12.60;99.90;;;;;;4914957;29;20481;-70
2021/09/08 04:41:27;;;;;;;44.57;40.63;;;12.50;99.90;;;;;;4914611;29;20455;-70
2021/09/08 04:43:55;;;;;;;45.17;41.23;;;12.60;99.90;;;;;;4914847;29;20486;-71
2021/09/08 04:46:22;;;;;;;48.00;43.30;;;12.50;99.90;;;;;;4915237;29;20462;-71
2021/09/08 04:48:49;;;;;;;46.03;41.73;;;12.50;99.90;;;;;;4914754;29;20974;-69
2021/09/08 04:51:15;;;;;;;44.60;40.80;;;12.50;99.90;;;;;;4914737;29;20509;-70
2021/09/08 04:53:44;;;;;;;45.50;41.50;;;12.60;99.90;;;;;;4914712;29;20462;-69
2021/09/08 04:56:10;;;;;;;43.87;40.00;;;12.60;99.90;;;;;;4914895;29;20462;-69
2021/09/08 04:58:37;;;;;;;44.80;40.47;;;12.60;99.90;;;;;;4915100;29;20949;-70
2021/09/08 05:01:04;;;;;;;47.50;42.70;;;12.60;99.90;;;;;;4914862;29;20474;-70
2021/09/08 05:03:32;;;;;;;45.47;41.07;;;12.60;99.90;;;;;;4929734;29;20697;-70
2021/09/08 05:05:58;;;;;;;46.47;42.23;;;12.60;99.90;;;;;;4952465;29;20456;-70
2021/09/08 05:08:25;;;;;;;46.10;41.40;;;12.60;99.90;;;;;;4952675;29;20448;-71
2021/09/08 05:10:53;;;;;;;44.60;40.00;;;12.60;99.90;;;;;;4959922;28;20488;-71
2021/09/08 05:13:20;;;;;;;48.60;43.63;;;12.60;99.90;;;;;;4971492;28;20459;-71
2021/09/08 05:15:47;;;;;;;47.40;42.30;;;12.70;99.90;;;;;;4971852;28;20458;-71
2021/09/08 05:18:13;;;;;;;44.20;40.30;;;12.70;99.90;;;;;;4971627;28;20452;-71
2021/09/08 05:20:40;;;;;;;52.42;47.33;;;12.60;99.90;;;;;;4970461;28;20442;-70
2021/09/08 05:23:07;;;;;;;47.37;43.17;;;12.70;99.90;;;;;;4971839;28;20211;-73
2021/09/08 05:25:33;;;;;;;48.20;43.50;;;12.70;99.90;;;;;;4970015;28;20452;-72
2021/09/08 05:28:01;;;;;;;45.57;41.63;;;12.70;99.90;;;;;;4969735;28;20452;-72
2021/09/08 05:30:28;;;;;;;48.83;44.10;;;12.70;99.90;;;;;;4970703;28;20491;-73
2021/09/08 05:32:55;;;;;;;49.20;44.67;;;12.70;99.90;;;;;;4971750;28;20559;-73
2021/09/08 05:35:22;;;;;;;45.60;41.50;;;12.70;99.90;;;;;;4969921;28;20852;-71
2021/09/08 05:37:48;;;;;;;49.33;44.40;;;12.70;99.90;;;;;;4969891;28;20451;-72
2021/09/08 05:40:15;;;;;;;46.40;42.17;;;12.80;99.90;;;;;;4970503;28;20459;-72
2021/09/08 05:42:42;;;;;;;50.40;45.60;;;12.80;99.90;;;;;;4970028;28;20459;-71
2021/09/08 05:45:10;;;;;;;51.37;46.40;;;12.90;99.90;;;;;;4971688;28;20467;-72
2021/09/08 05:47:37;;;;;;;50.93;46.00;;;13.00;99.90;;;;;;4971397;28;20916;-72
2021/09/08 05:50:05;;;;;;;51.50;46.67;;;13.30;99.90;;;;;;4971195;28;20510;-72
2021/09/08 05:52:31;;;;;;;52.37;47.13;;;13.60;99.90;;;;;;4971388;28;20451;-73
2021/09/08 05:54:58;;;;;;;49.93;44.73;;;13.90;99.90;;;;;;4971077;28;20444;-72
2021/09/08 05:57:25;;;;;;;45.07;41.23;;;14.20;99.90;;;;;;4971099;28;20460;-72
2021/09/08 05:59:51;;;;;;;41.53;37.80;;;14.50;99.90;;;;;;4971142;28;20452;-72
2021/09/08 06:02:19;;;;;;;36.77;33.33;;;14.90;99.90;;;;;;4970876;28;20471;-72
2021/09/08 06:04:46;;;;;;;35.80;32.77;;;15.50;99.90;;;;;;4970796;28;20977;-72
2021/09/08 06:07:13;;;;;;;33.90;30.77;;;16.00;99.90;;;;;;4971098;28;20824;-71
2021/09/08 06:09:40;;;;;;;34.80;31.60;;;16.50;99.90;;;;;;4971111;28;20462;-72
2021/09/08 06:12:07;;;;;;;34.27;31.37;;;17.10;99.90;;;;;;4971253;28;21012;-72
2021/09/08 06:14:34;;;;;;;31.90;29.50;;;17.80;99.90;;;;;;4971328;28;20459;-72
2021/09/08 06:17:00;;;;;;;31.90;29.20;;;18.20;99.90;;;;;;4971112;28;20979;-71
2021/09/08 06:19:28;;;;;;;31.80;29.00;;;18.80;99.90;;;;;;4971074;28;20455;-72
2021/09/08 06:21:55;;;;;;;31.50;28.83;;;19.10;99.90;;;;;;4971013;28;20448;-72
2021/09/08 06:24:22;;;;;;;30.67;28.37;;;19.70;99.90;;;;;;4971247;28;20448;-72
2021/09/08 06:26:49;;;;;;;31.43;28.83;;;20.20;99.90;;;;;;4970908;28;20464;-72
2021/09/08 06:29:16;;;;;;;29.60;27.00;;;20.40;99.90;;;;;;4971018;28;20602;-72
2021/09/08 06:31:43;;;;;;;30.70;28.30;;;20.90;99.90;;;;;;4972329;28;20583;-72
2021/09/08 06:34:10;;;;;;;31.23;28.70;;;21.20;99.90;;;;;;4974683;28;20460;-72
2021/09/08 06:36:38;;;;;;;33.40;30.50;;;21.50;99.90;;;;;;4974448;28;20530;-72
2021/09/08 06:39:06;;;;;;;33.00;30.10;;;21.90;99.90;;;;;;4974681;28;20451;-72
2021/09/08 06:41:32;;;;;;;35.90;32.87;;;22.00;99.90;;;;;;4974207;28;20452;-72
2021/09/08 06:43:59;;;;;;;36.27;33.03;;;22.30;99.90;;;;;;4974231;28;20803;-72
2021/09/08 06:46:26;;;;;;;34.63;31.80;;;22.60;99.90;;;;;;4974267;28;20451;-73
2021/09/08 06:48:52;;;;;;;32.70;30.00;;;22.60;99.90;;;;;;4974670;28;20455;-73
2021/09/08 06:51:19;;;;;;;32.10;29.47;;;22.80;99.90;;;;;;4974262;28;20493;-72
2021/09/08 06:53:47;;;;;;;31.47;28.23;;;23.20;99.90;;;;;;4974411;28;20466;-72
2021/09/08 06:56:14;;;;;;;34.73;31.97;;;23.50;99.50;;;;;;4974483;28;20455;-72
2021/09/08 06:58:40;;;;;;;34.57;31.70;;;23.50;99.50;;;;;;4974330;28;20455;-72
2021/09/08 07:01:07;;;;;;;33.90;31.10;;;23.70;99.20;;;;;;4974277;28;20475;-72
2021/09/08 07:03:34;;;;;;;32.10;29.50;;;24.40;98.00;;;;;;4974104;28;20486;-72
2021/09/08 07:06:01;;;;;;;31.97;29.30;;;24.30;97.90;;;;;;4974099;28;20458;-73
2021/09/08 07:08:27;;;;;;;33.57;30.87;;;24.80;97.00;;;;;;4974274;28;20459;-73
2021/09/08 07:10:55;;;;;;;33.77;30.70;;;24.50;98.00;;;;;;4973863;28;20491;-73
2021/09/08 07:13:22;;;;;;;34.27;30.87;;;25.00;96.50;;;;;;4974201;28;20459;-74
2021/09/08 07:15:49;;;;;;;35.80;32.23;;;25.30;96.30;;;;;;4974110;28;20451;-72
2021/09/08 07:18:16;;;;;;;34.70;31.77;;;25.30;95.70;;;;;;4973730;28;20829;-72
2021/09/08 07:20:43;;;;;;;34.90;31.90;;;25.30;95.70;;;;;;4973579;28;20460;-72
2021/09/08 07:23:10;;;;;;;34.80;31.70;;;26.10;94.30;;;;;;4973895;28;20459;-72
2021/09/08 07:25:37;;;;;;;37.77;34.40;;;26.80;92.90;;;;;;4973784;28;20459;-73
2021/09/08 07:28:05;;;;;;;35.97;33.03;;;27.10;92.00;;;;;;4974028;28;20451;-73
2021/09/08 07:30:33;;;;;;;36.00;33.10;;;27.40;91.20;;;;;;4973786;28;20451;-73
2021/09/08 07:33:00;;;;;;;37.03;34.23;;;27.90;90.30;;;;;;4973875;28;20781;-74
2021/09/08 07:35:27;;;;;;;36.27;33.27;;;28.10;88.90;;;;;;4973469;28;20452;-74
2021/09/08 07:37:54;;;;;;;34.93;32.33;;;27.90;89.80;;;;;;4973904;28;20455;-72
2021/09/08 07:40:21;;;;;;;32.50;29.80;;;27.40;90.10;;;;;;4973867;28;20474;-73
2021/09/08 07:42:48;;;;;;;33.73;31.03;;;27.60;90.00;;;;;;4972924;28;20444;-73
2021/09/08 07:45:16;;;;;;;36.07;33.00;;;27.40;90.10;;;;;;4973608;28;20447;-74
2021/09/08 07:47:43;;;;;;;34.13;31.57;;;27.00;90.90;;;;;;4973399;28;20451;-71
2021/09/08 07:50:10;;;;;;;33.50;30.50;;;27.60;90.00;;;;;;4973546;28;20796;-72
2021/09/08 07:52:37;;;;;;;35.43;32.07;;;28.20;87.90;;;;;;4973679;28;20565;-73
2021/09/08 07:55:05;;;;;;;36.17;33.30;;;28.90;85.40;;;;;;4973650;28;20467;-72
2021/09/08 07:57:32;;;;;;;35.70;32.50;;;28.80;84.30;;;;;;4973503;28;20462;-72
2021/09/08 07:59:58;;;;;;;33.37;30.77;;;28.80;84.10;;;;;;4973232;28;20458;-73
2021/09/08 08:02:26;;;;;;;33.23;30.50;;;29.00;82.40;;;;;;4973015;28;20455;-72
2021/09/08 08:04:53;;;;;;;34.50;31.40;;;28.70;83.90;;;;;;4973399;28;20823;-73
2021/09/08 08:07:20;;;;;;;32.23;29.87;;;28.70;82.70;;;;;;4973376;28;20447;-72
2021/09/08 08:09:46;;;;;;;31.47;29.17;;;28.90;80.40;;;;;;4973121;28;20451;-73
2021/09/08 08:12:13;;;;;;;31.60;29.23;;;29.00;80.00;;;;;;4972669;28;20487;-72
2021/09/08 08:14:40;;;;;;;32.90;30.40;;;28.90;79.70;;;;;;4972875;28;20451;-72
2021/09/08 08:17:07;;;;;;;30.00;27.53;;;28.30;81.50;;;;;;4973021;28;20463;-71
2021/09/08 08:19:35;;;;;;;29.00;26.60;;;28.50;81.60;;;;;;4972743;28;20511;-72
2021/09/08 08:22:02;;;;;;;29.13;26.87;;;28.00;82.10;;;;;;4973124;28;20455;-72
2021/09/08 08:24:28;;;;;;;27.37;25.37;;;29.00;79.10;;;;;;4972969;28;20464;-72
2021/09/08 08:26:57;;;;;;;29.87;27.37;;;30.10;75.70;;;;;;4972768;28;20455;-72
2021/09/08 08:29:23;;;;;;;28.77;26.63;;;30.40;74.50;;;;;;4972987;28;20481;-72
2021/09/08 08:31:50;;;;;;;29.20;27.33;;;30.80;73.00;;;;;;4972806;28;20487;-72
2021/09/08 08:34:17;;;;;;;27.27;25.33;;;31.00;72.50;;;;;;4972758;28;20456;-72
2021/09/08 08:36:45;;;;;;;26.83;25.03;;;30.90;73.20;;;;;;4972501;28;20452;-72
2021/09/08 08:39:11;;;;;;;28.00;26.20;;;31.00;70.50;;;;;;4972652;28;20463;-73
2021/09/08 08:41:38;;;;;;;27.30;25.60;;;31.50;68.50;;;;;;4972732;28;20455;-72
2021/09/08 08:44:05;;;;;;;27.30;25.63;;;32.00;66.60;;;;;;4972665;28;20455;-73
2021/09/08 08:46:32;;;;;;;29.33;27.30;;;32.10;66.30;;;;;;4972722;28;20463;-73
2021/09/08 08:48:59;;;;;;;25.77;24.20;;;33.10;62.80;;;;;;4972299;28;20460;-73
2021/09/08 08:51:26;;;;;;;29.20;26.90;;;33.60;61.20;;;;;;4972278;28;20479;-73
2021/09/08 08:53:54;;;;;;;29.23;26.97;;;33.80;58.70;;;;;;4972614;28;20455;-73
2021/09/08 08:56:23;;;;;;;28.03;25.93;;;34.00;58.40;;;;;;4971704;28;20462;-74
2021/09/08 08:58:50;;;;;;;29.27;27.17;;;34.10;57.30;;;;;;4972441;28;20455;-73
2021/09/08 09:01:19;;;;;;;29.23;27.20;;;34.50;56.30;;;;;;4971800;28;20475;-73
2021/09/08 09:03:59;;;;;;;30.27;28.37;;;34.80;55.70;;;;;;4971604;28;20893;-73
2021/09/08 09:06:26;;;;;;;28.90;27.03;;;34.60;55.40;;;;;;4971913;28;20942;-73
2021/09/08 09:09:00;;;;;;;32.50;30.10;;;35.20;54.00;;;;;;4971926;28;20459;-73
2021/09/08 09:11:26;;;;;;;28.97;26.90;;;35.20;54.10;;;;;;4971620;28;20479;-73
2021/09/08 09:13:53;;;;;;;28.17;25.67;;;34.80;54.00;;;;;;4971820;28;20488;-73
2021/09/08 09:16:25;;;;;;;25.10;23.60;;;34.90;53.20;;;;;;4971883;28;20455;-74
2021/09/08 09:18:51;;;;;;;24.43;23.07;;;34.70;52.50;;;;;;4972029;28;20456;-74
2021/09/08 09:21:18;;;;;;;21.30;20.20;;;33.90;52.50;;;;;;4971679;28;20526;-74
2021/09/08 09:23:47;;;;;;;21.10;20.10;;;32.70;53.50;;;;;;4971563;28;20463;-74
2021/09/08 09:26:21;;;;;;;21.60;20.20;;;31.90;55.40;;;;;;4971649;28;20956;-73
2021/09/08 09:28:47;;;;;;;21.50;20.30;;;31.10;56.60;;;;;;4971433;28;20448;-74
2021/09/08 09:31:15;;;;;;;20.80;19.43;;;31.00;57.00;;;;;;4971627;28;20444;-74
2021/09/08 09:33:44;;;;;;;20.83;19.63;;;31.10;57.60;;;;;;4971753;28;20455;-74
2021/09/08 09:36:16;;;;;;;20.27;19.27;;;31.40;56.30;;;;;;4971733;28;20459;-74
2021/09/08 09:38:44;;;;;;;20.10;18.70;;;31.40;56.60;;;;;;4971844;28;20452;-73
2021/09/08 09:41:11;;;;;;;21.50;20.40;;;32.30;55.40;;;;;;4971739;28;20467;-74
2021/09/08 09:43:42;;;;;;;20.93;19.93;;;32.50;54.80;;;;;;4971875;28;20951;-74
2021/09/08 09:46:09;;;;;;;21.83;20.63;;;32.00;55.80;;;;;;4971640;28;20452;-74
2021/09/08 09:48:36;;;;;;;22.03;20.87;;;32.10;56.20;;;;;;4971607;28;20454;-73
2021/09/08 09:51:03;;;;;;;21.53;19.93;;;31.90;56.60;;;;;;4971282;28;20937;-74
2021/09/08 09:53:30;;;;;;;20.70;19.53;;;31.70;57.30;;;;;;4971375;28;20495;-73
2021/09/08 09:55:58;;;;;;;21.67;20.47;;;31.10;58.20;;;;;;4971152;28;20455;-73
2021/09/08 09:58:25;;;;;;;22.27;20.97;;;31.40;57.20;;;;;;4971492;28;20561;-73
2021/09/08 10:00:53;;;;;;;22.83;21.50;;;31.50;57.10;;;;;;4971315;28;20471;-73
2021/09/08 10:03:21;;;;;;;22.73;21.37;;;31.00;58.20;;;;;;4971461;28;20476;-73
2021/09/08 10:05:49;;;;;;;22.37;21.10;;;30.80;57.80;;;;;;4971605;28;20529;-73
2021/09/08 10:08:20;;;;;;;20.90;19.60;;;30.80;58.60;;;;;;4975314;28;20567;-73
2021/09/08 10:10:47;;;;;;;21.60;20.50;;;31.30;58.50;;;;;;4975311;28;20976;-73
2021/09/08 10:13:18;;;;;;;20.60;19.60;;;31.20;57.70;;;;;;4975286;28;20491;-73
2021/09/08 10:15:46;;;;;;;20.53;19.53;;;31.50;56.80;;;;;;4975092;28;20451;-73
2021/09/08 10:18:15;;;;;;;21.57;20.47;;;31.60;57.50;;;;;;4975153;28;20458;-73
2021/09/08 10:20:44;;;;;;;20.47;19.33;;;31.50;57.50;;;;;;4975052;28;20526;-73
2021/09/08 10:23:12;;;;;;;21.20;20.00;;;31.20;57.50;;;;;;4975052;28;20957;-73
2021/09/08 10:25:45;;;;;;;21.40;20.30;;;31.20;57.60;;;;;;4975289;28;20452;-74
2021/09/08 10:28:15;;;;;;;22.13;20.90;;;31.50;57.60;;;;;;4975182;28;20498;-72
2021/09/08 10:30:43;;;;;;;22.87;21.67;;;32.10;56.70;;;;;;4974823;28;20455;-72
2021/09/08 10:33:10;;;;;;;20.97;19.87;;;32.70;55.60;;;;;;4974938;28;20546;-73
2021/09/08 10:35:40;;;;;;;22.23;21.13;;;32.30;55.20;;;;;;4974864;28;20456;-72
2021/09/08 10:38:13;;;;;;;21.57;20.57;;;32.00;56.50;;;;;;4974885;28;20454;-73
2021/09/08 10:40:41;;;;;;;22.67;21.47;;;31.80;57.10;;;;;;4974911;28;21004;-72
2021/09/08 10:43:08;;;;;;;23.20;21.80;;;32.30;56.60;;;;;;4975032;28;20968;-73
2021/09/08 10:45:35;;;;;;;22.33;21.13;;;33.60;54.30;;;;;;4975102;28;20448;-73
2021/09/08 10:48:04;;;;;;;21.37;20.30;;;34.70;53.00;;;;;;4974763;28;20459;-74
2021/09/08 10:50:43;;;;;;;21.57;20.47;;;34.40;51.50;;;;;;4974257;28;20752;-73
2021/09/08 10:53:34;;;;;;;22.00;20.90;;;33.40;53.50;;;;;;4973800;28;20487;-73
2021/09/08 10:56:02;;;;;;;20.90;19.80;;;32.00;55.60;;;;;;4955646;28;20463;-73
2021/09/08 10:59:00;;;;;;;21.60;20.60;;;32.80;55.20;;;;;;4974391;28;20444;-72
2021/09/08 11:01:28;;;;;;;21.40;20.20;;;33.30;54.70;;;;;;4974058;28;20474;-72
2021/09/08 11:03:55;;;;;;;22.27;20.97;;;33.20;54.90;;;;;;4974231;28;20475;-72
2021/09/08 11:06:38;;;;;;;23.13;21.83;;;33.90;53.60;;;;;;4974620;28;20448;-73
2021/09/08 11:09:07;;;;;;;21.77;20.77;;;32.90;54.50;;;;;;4974375;28;20542;-72
2021/09/08 11:11:34;;;;;;;22.03;20.93;;;33.00;54.60;;;;;;4974375;28;20455;-73
2021/09/08 11:14:01;;;;;;;21.20;20.10;;;33.00;53.80;;;;;;4974084;28;20831;-73
2021/09/08 11:16:29;;;;;;;22.20;21.13;;;32.10;54.20;;;;;;4973972;28;20459;-72
2021/09/08 11:18:58;;;;;;;21.40;20.40;;;31.70;55.50;;;;;;4973202;28;20814;-72
2021/09/08 11:21:26;;;;;;;21.67;20.40;;;32.00;54.70;;;;;;4973874;28;20451;-72
2021/09/08 11:24:03;;;;;;;20.13;19.13;;;33.00;54.20;;;;;;4974302;28;20447;-72
2021/09/08 11:26:31;;;;;;;21.40;20.40;;;33.60;52.90;;;;;;4974026;28;20451;-72
2021/09/08 11:29:00;;;;;;;20.97;19.93;;;34.00;52.50;;;;;;4973939;28;20462;-73
2021/09/08 11:31:32;;;;;;;21.33;20.20;;;33.00;53.60;;;;;;4974006;28;20490;-72
2021/09/08 11:33:59;;;;;;;21.10;20.03;;;32.80;53.80;;;;;;4973619;28;20742;-72
2021/09/08 11:36:26;;;;;;;21.60;20.50;;;33.50;52.90;;;;;;4973805;28;20862;-72
2021/09/08 11:38:56;;;;;;;21.90;20.43;;;34.30;50.50;;;;;;4974241;28;20455;-73
2021/09/08 11:41:26;;;;;;;21.13;19.90;;;34.00;51.00;;;;;;4974180;28;20873;-73
2021/09/08 11:43:53;;;;;;;21.90;20.63;;;33.40;52.10;;;;;;4973978;28;20448;-72
2021/09/08 11:46:22;;;;;;;21.57;20.40;;;33.50;52.70;;;;;;4973984;28;20448;-73
2021/09/08 11:48:51;;;;;;;21.97;20.93;;;34.30;52.00;;;;;;4973582;28;20451;-72
2021/09/08 11:51:19;;;;;;;23.10;21.80;;;35.60;50.10;;;;;;4973491;28;20981;-73
2021/09/08 11:53:49;;;;;;;21.10;20.10;;;36.40;48.90;;;;;;4973488;28;20498;-72
2021/09/08 11:56:17;;;;;;;21.17;20.17;;;36.40;48.80;;;;;;4973446;28;20518;-72
2021/09/08 11:58:50;;;;;;;22.20;21.20;;;35.40;49.00;;;;;;4973500;28;20455;-73
2021/09/08 12:01:17;;;;;;;21.07;20.07;;;35.10;49.10;;;;;;4973125;28;20467;-73
2021/09/08 12:03:47;;;;;;;22.70;21.60;;;35.90;48.60;;;;;;4973066;28;20487;-73
2021/09/08 12:06:17;;;;;;;22.63;21.33;;;36.60;47.70;;;;;;4973030;28;20721;-73
2021/09/08 12:08:54;;;;;;;21.30;20.20;;;36.40;47.20;;;;;;4972910;28;20777;-73
2021/09/08 12:11:39;;;;;;;21.53;20.53;;;35.00;47.90;;;;;;4973289;28;20953;-72
2021/09/08 12:14:18;;;;;;;21.23;20.03;;;33.80;49.30;;;;;;4973177;28;21024;-73
2021/09/08 12:16:46;;;;;;;21.50;20.40;;;34.20;50.40;;;;;;4972908;28;20457;-72
2021/09/08 12:19:13;;;;;;;21.17;20.03;;;35.60;47.70;;;;;;4972897;28;20466;-72
2021/09/08 12:21:40;;;;;;;22.13;20.90;;;35.50;48.10;;;;;;4973100;28;20463;-72
2021/09/08 12:24:23;;;;;;;20.60;19.57;;;35.90;47.30;;;;;;4973089;28;20913;-73
2021/09/08 12:26:50;;;;;;;21.33;20.23;;;36.40;46.40;;;;;;4973210;28;20447;-73
2021/09/08 12:29:18;;;;;;;19.50;18.70;;;35.70;46.10;;;;;;4972786;28;20462;-73
2021/09/08 12:31:53;;;;;;;20.20;19.03;;;34.80;47.10;;;;;;4972718;28;20467;-72
2021/09/08 12:34:20;;;;;;;21.97;20.87;;;34.70;47.00;;;;;;4972701;28;20553;-73
2021/09/08 12:36:47;;;;;;;22.30;20.80;;;34.90;47.50;;;;;;4972745;28;20471;-74
2021/09/08 12:39:17;;;;;;;21.10;20.00;;;34.60;48.30;;;;;;4972607;28;20833;-73
2021/09/08 12:41:59;;;;;;;20.20;19.20;;;34.50;48.20;;;;;;4972642;28;20458;-73
2021/09/08 12:44:30;;;;;;;21.50;20.33;;;34.50;47.80;;;;;;4972691;28;20510;-72
2021/09/08 12:47:07;;;;;;;20.00;18.90;;;34.60;48.30;;;;;;4972580;28;20451;-73
2021/09/08 12:49:35;;;;;;;19.30;18.20;;;34.90;46.80;;;;;;4972687;28;20483;-73
2021/09/08 12:52:05;;;;;;;19.47;18.37;;;34.60;47.10;;;;;;4972536;28;20463;-74
2021/09/08 12:54:31;;;;;;;19.60;18.60;;;34.10;46.00;;;;;;4972317;28;20491;-72
2021/09/08 12:56:58;;;;;;;20.33;19.33;;;34.70;46.50;;;;;;4972363;28;20821;-72
2021/09/08 12:59:27;;;;;;;21.13;20.13;;;34.70;46.40;;;;;;4972252;28;20802;-72
2021/09/08 13:01:55;;;;;;;20.83;19.57;;;34.50;46.90;;;;;;4972376;28;20476;-72
2021/09/08 13:04:22;;;;;;;20.50;19.57;;;35.10;46.50;;;;;;4972285;28;20480;-73
2021/09/08 13:06:50;;;;;;;19.93;18.90;;;35.80;44.90;;;;;;4972096;28;20474;-73
2021/09/08 13:09:17;;;;;;;20.40;19.40;;;35.00;46.20;;;;;;4972051;28;20460;-73
2021/09/08 13:11:44;;;;;;;20.27;19.37;;;33.60;48.30;;;;;;4972299;28;20796;-73
2021/09/08 13:14:11;;;;;;;20.10;19.10;;;33.00;49.00;;;;;;4971904;28;20834;-74
2021/09/08 13:16:38;;;;;;;19.27;18.37;;;33.30;48.50;;;;;;4972040;28;20458;-72
2021/09/08 13:19:08;;;;;;;19.27;18.47;;;34.20;47.70;;;;;;4972041;28;20455;-74
2021/09/08 13:21:35;;;;;;;19.00;17.87;;;34.70;46.50;;;;;;4971936;28;20448;-73
2021/09/08 13:24:03;;;;;;;19.90;18.90;;;34.80;45.40;;;;;;4971810;28;20452;-73
2021/09/08 13:26:31;;;;;;;20.37;19.17;;;34.90;44.80;;;;;;4971979;28;20456;-74
2021/09/08 13:28:57;;;;;;;19.07;18.07;;;34.40;45.10;;;;;;4971786;28;20460;-74
2021/09/08 13:31:28;;;;;;;18.30;17.50;;;34.50;44.80;;;;;;4971684;28;20813;-73
2021/09/08 13:33:55;;;;;;;18.40;17.50;;;34.10;44.60;;;;;;4971404;28;20527;-73
2021/09/08 13:36:23;;;;;;;18.43;17.60;;;33.50;46.90;;;;;;4971812;28;20459;-72
2021/09/08 13:38:50;;;;;;;18.87;18.07;;;33.70;46.80;;;;;;4971670;28;20957;-73
2021/09/08 13:41:17;;;;;;;18.40;17.50;;;34.10;44.40;;;;;;4970990;28;20467;-73
2021/09/08 13:43:44;;;;;;;18.07;17.00;;;33.50;44.10;;;;;;4971324;28;20451;-73
2021/09/08 13:46:10;;;;;;;18.30;17.60;;;33.10;45.10;;;;;;4971581;28;20467;-72
2021/09/08 13:48:37;;;;;;;18.27;17.47;;;33.20;44.70;;;;;;4971717;28;20845;-72
2021/09/08 13:51:04;;;;;;;17.33;16.53;;;32.90;44.80;;;;;;4971221;28;20467;-72
2021/09/08 13:53:32;;;;;;;18.20;17.30;;;32.80;44.60;;;;;;4971205;28;20494;-72
2021/09/08 13:56:00;;;;;;;17.57;16.77;;;32.30;45.20;;;;;;4971083;28;20455;-71
2021/09/08 13:58:27;;;;;;;17.93;16.93;;;32.30;45.40;;;;;;4971059;28;20459;-72
2021/09/08 14:00:55;;;;;;;16.67;15.97;;;32.90;45.20;;;;;;4971268;28;20479;-72
2021/09/08 14:03:22;;;;;;;18.03;17.00;;;32.40;44.00;;;;;;4970819;28;20483;-72
2021/09/08 14:05:48;;;;;;;18.20;17.20;;;31.80;45.60;;;;;;4970922;28;20950;-73
2021/09/08 14:08:16;;;;;;;19.07;18.07;;;31.90;46.40;;;;;;4970880;28;20941;-73
2021/09/08 14:10:45;;;;;;;16.13;15.43;;;31.80;46.30;;;;;;4970541;28;20946;-72
2021/09/08 14:13:12;;;;;;;17.20;16.40;;;31.10;47.80;;;;;;4970767;28;20495;-73
2021/09/08 14:15:40;;;;;;;17.20;16.43;;;30.50;48.10;;;;;;4971157;28;20530;-73
2021/09/08 14:18:07;;;;;;;17.40;16.60;;;29.70;49.50;;;;;;4971047;28;20459;-73